sensor_id;sensor_type;location;lat;lon;timestamp;pressure;altitude;pressure_sealevel;temperature;humidity
15229;BME280;7717;47.792;12.076;2023-02-17T00:01:42;97019.25;;;7.43;nan
15229;BME280;7717;47.792;12.076;2023-02-17T00:04:08;97038.66;;;7.39;nan
15229;BME280;7717;47.792;12.076;2023-02-17T00:06:34;97036.84;;;7.73;nan
15229;BME280;7717;47.792;12.076;2023-02-17T00:08:59;97036.31;;;7.89;nan
15229;BME280;7717;47.792;12.076;2023-02-17T00:11:26;97027.94;;;7.97;nan
15229;BME280;7717;47.792;12.076;2023-02-17T00:13:52;96999.59;;;8.25;nan
15229;BME280;7717;47.792;12.076;2023-02-17T00:16:20;97019.78;;;8.13;nan
15229;BME280;7717;47.792;12.076;2023-02-17T00:18:51;97023.59;;;7.89;nan
15229;BME280;7717;47.792;12.076;2023-02-17T00:21:20;97026.22;;;7.94;nan
15229;BME280;7717;47.792;12.076;2023-02-17T00:23:47;97018.94;;;8.16;nan
15229;BME280;7717;47.792;12.076;2023-02-17T00:26:14;96989.41;;;8.27;nan
15229;BME280;7717;47.792;12.076;2023-02-17T00:28:40;97003.13;;;8.34;nan
15229;BME280;7717;47.792;12.076;2023-02-17T00:31:07;96991.22;;;8.34;nan
15229;BME280;7717;47.792;12.076;2023-02-17T00:33:33;96971.53;;;8.25;nan
15229;BME280;7717;47.792;12.076;2023-02-17T00:35:58;97001.34;;;8.29;nan
15229;BME280;7717;47.792;12.076;2023-02-17T00:38:27;97013.16;;;8.23;nan
15229;BME280;7717;47.792;12.076;2023-02-17T00:40:53;97013.88;;;8.17;nan
15229;BME280;7717;47.792;12.076;2023-02-17T00:43:18;97013.88;;;8.17;nan
15229;BME280;7717;47.792;12.076;2023-02-17T00:45:43;97002.66;;;8.07;nan
15229;BME280;7717;47.792;12.076;2023-02-17T00:48:09;97015.50;;;8.12;nan
15229;BME280;7717;47.792;12.076;2023-02-17T00:50:35;96999.47;;;8.18;nan
15229;BME280;7717;47.792;12.076;2023-02-17T00:53:00;97011.44;;;8.23;nan
15229;BME280;7717;47.792;12.076;2023-02-17T00:55:25;96965.31;;;8.09;nan
15229;BME280;7717;47.792;12.076;2023-02-17T00:57:51;97012.47;;;8.32;nan
15229;BME280;7717;47.792;12.076;2023-02-17T01:00:16;96975.69;;;8.20;nan
15229;BME280;7717;47.792;12.076;2023-02-17T01:02:42;96996.09;;;8.20;nan
15229;BME280;7717;47.792;12.076;2023-02-17T01:05:07;97006.47;;;8.31;nan
15229;BME280;7717;47.792;12.076;2023-02-17T01:07:32;96997.94;;;8.27;nan
15229;BME280;7717;47.792;12.076;2023-02-17T01:09:58;96981.91;;;8.35;nan
15229;BME280;7717;47.792;12.076;2023-02-17T01:12:23;96982.66;;;8.29;nan
15229;BME280;7717;47.792;12.076;2023-02-17T01:14:49;96980.28;;;8.40;nan
15229;BME280;7717;47.792;12.076;2023-02-17T01:17:14;96954.53;;;8.26;nan
15229;BME280;7717;47.792;12.076;2023-02-17T01:19:39;96987.88;;;8.37;nan
15229;BME280;7717;47.792;12.076;2023-02-17T01:22:05;96983.50;;;8.29;nan
15229;BME280;7717;47.792;12.076;2023-02-17T01:24:30;96968.84;;;8.18;nan
15229;BME280;7717;47.792;12.076;2023-02-17T01:26:55;96998.75;;;8.26;nan
15229;BME280;7717;47.792;12.076;2023-02-17T01:29:21;96981.78;;;8.27;nan
15229;BME280;7717;47.792;12.076;2023-02-17T01:31:46;96973.06;;;8.17;nan
15229;BME280;7717;47.792;12.076;2023-02-17T01:34:12;96951.78;;;8.14;nan
15229;BME280;7717;47.792;12.076;2023-02-17T01:36:38;96966.13;;;8.07;nan
15229;BME280;7717;47.792;12.076;2023-02-17T01:39:03;96987.00;;;7.87;nan
15229;BME280;7717;47.792;12.076;2023-02-17T01:41:28;96966.91;;;8.04;nan
15229;BME280;7717;47.792;12.076;2023-02-17T01:46:33;96937.38;;;8.17;nan
15229;BME280;7717;47.792;12.076;2023-02-17T01:48:59;96944.91;;;8.08;nan
15229;BME280;7717;47.792;12.076;2023-02-17T01:51:30;96970.47;;;8.14;nan
15229;BME280;7717;47.792;12.076;2023-02-17T01:54:06;96956.09;;;8.16;nan
15229;BME280;7717;47.792;12.076;2023-02-17T01:56:33;96946.16;;;8.33;nan
15229;BME280;7717;47.792;12.076;2023-02-17T01:59:05;96941.03;;;8.32;nan
15229;BME280;7717;47.792;12.076;2023-02-17T02:01:31;96941.81;;;8.27;nan
15229;BME280;7717;47.792;12.076;2023-02-17T02:03:58;96938.34;;;8.22;nan
15229;BME280;7717;47.792;12.076;2023-02-17T02:06:26;96943.16;;;8.07;nan
15229;BME280;7717;47.792;12.076;2023-02-17T02:08:57;96958.69;;;8.19;nan
15229;BME280;7717;47.792;12.076;2023-02-17T02:11:23;96958.75;;;8.22;nan
15229;BME280;7717;47.792;12.076;2023-02-17T02:13:49;96952.56;;;8.11;nan
15229;BME280;7717;47.792;12.076;2023-02-17T02:16:22;96961.03;;;8.07;nan
15229;BME280;7717;47.792;12.076;2023-02-17T02:19:04;96966.09;;;8.05;nan
15229;BME280;7717;47.792;12.076;2023-02-17T02:24:25;96975.13;;;7.88;nan
15229;BME280;7717;47.792;12.076;2023-02-17T02:35:19;96986.78;;;7.77;nan
15229;BME280;7717;47.792;12.076;2023-02-17T02:40:13;97017.75;;;7.52;nan
15229;BME280;7717;47.792;12.076;2023-02-17T02:42:41;97032.28;;;7.56;nan
15229;BME280;7717;47.792;12.076;2023-02-17T02:45:09;97003.16;;;7.45;nan
15229;BME280;7717;47.792;12.076;2023-02-17T02:50:03;97025.56;;;7.62;nan
15229;BME280;7717;47.792;12.076;2023-02-17T03:04:09;96962.41;;;7.89;nan
15229;BME280;7717;47.792;12.076;2023-02-17T03:06:55;96949.97;;;8.06;nan
15229;BME280;7717;47.792;12.076;2023-02-17T03:09:26;96982.25;;;8.06;nan
15229;BME280;7717;47.792;12.076;2023-02-17T03:11:54;96958.47;;;8.07;nan
15229;BME280;7717;47.792;12.076;2023-02-17T03:14:21;96949.00;;;8.01;nan
15229;BME280;7717;47.792;12.076;2023-02-17T03:16:47;96962.16;;;8.24;nan
15229;BME280;7717;47.792;12.076;2023-02-17T03:19:14;96950.81;;;8.07;nan
15229;BME280;7717;47.792;12.076;2023-02-17T03:21:47;96955.19;;;8.14;nan
15229;BME280;7717;47.792;12.076;2023-02-17T03:24:14;96988.31;;;8.14;nan
15229;BME280;7717;47.792;12.076;2023-02-17T03:26:39;96982.38;;;8.14;nan
15229;BME280;7717;47.792;12.076;2023-02-17T03:29:05;96996.44;;;7.93;nan
15229;BME280;7717;47.792;12.076;2023-02-17T03:31:30;96971.00;;;7.95;nan
15229;BME280;7717;47.792;12.076;2023-02-17T03:33:56;96947.53;;;8.14;nan
15229;BME280;7717;47.792;12.076;2023-02-17T03:36:21;96963.50;;;8.04;nan
15229;BME280;7717;47.792;12.076;2023-02-17T03:38:47;96944.94;;;8.13;nan
15229;BME280;7717;47.792;12.076;2023-02-17T03:41:12;96956.88;;;8.14;nan
15229;BME280;7717;47.792;12.076;2023-02-17T03:43:37;96946.78;;;8.20;nan
15229;BME280;7717;47.792;12.076;2023-02-17T03:46:03;96954.44;;;8.20;nan
15229;BME280;7717;47.792;12.076;2023-02-17T03:48:28;96962.78;;;8.11;nan
15229;BME280;7717;47.792;12.076;2023-02-17T03:50:54;96955.19;;;8.14;nan
15229;BME280;7717;47.792;12.076;2023-02-17T03:53:19;96968.69;;;8.08;nan
15229;BME280;7717;47.792;12.076;2023-02-17T03:55:45;96949.16;;;8.10;nan
15229;BME280;7717;47.792;12.076;2023-02-17T03:58:10;96948.38;;;8.13;nan
15229;BME280;7717;47.792;12.076;2023-02-17T04:00:36;96924.72;;;8.22;nan
15229;BME280;7717;47.792;12.076;2023-02-17T04:03:01;96962.34;;;8.35;nan
15229;BME280;7717;47.792;12.076;2023-02-17T04:05:27;96957.50;;;8.00;nan
15229;BME280;7717;47.792;12.076;2023-02-17T04:07:52;96971.66;;;7.86;nan
15229;BME280;7717;47.792;12.076;2023-02-17T04:10:17;96972.59;;;7.89;nan
15229;BME280;7717;47.792;12.076;2023-02-17T04:12:43;96982.13;;;8.00;nan
15229;BME280;7717;47.792;12.076;2023-02-17T04:15:08;96970.09;;;7.91;nan
15229;BME280;7717;47.792;12.076;2023-02-17T04:17:37;96953.09;;;7.91;nan
15229;BME280;7717;47.792;12.076;2023-02-17T04:20:04;96957.38;;;7.92;nan
15229;BME280;7717;47.792;12.076;2023-02-17T04:22:30;96956.56;;;7.97;nan
15229;BME280;7717;47.792;12.076;2023-02-17T04:24:55;96971.25;;;8.08;nan
15229;BME280;7717;47.792;12.076;2023-02-17T04:27:21;96986.22;;;7.91;nan
15229;BME280;7717;47.792;12.076;2023-02-17T04:29:46;96965.47;;;7.73;nan
15229;BME280;7717;47.792;12.076;2023-02-17T04:32:11;96945.88;;;8.16;nan
15229;BME280;7717;47.792;12.076;2023-02-17T04:34:37;96969.56;;;8.10;nan
15229;BME280;7717;47.792;12.076;2023-02-17T04:37:02;96934.84;;;8.19;nan
15229;BME280;7717;47.792;12.076;2023-02-17T04:39:28;96923.81;;;8.18;nan
15229;BME280;7717;47.792;12.076;2023-02-17T04:41:53;96921.41;;;8.27;nan
15229;BME280;7717;47.792;12.076;2023-02-17T04:44:18;96922.47;;;8.42;nan
15229;BME280;7717;47.792;12.076;2023-02-17T04:46:44;96953.25;;;8.01;nan
15229;BME280;7717;47.792;12.076;2023-02-17T04:49:09;96940.47;;;7.98;nan
15229;BME280;7717;47.792;12.076;2023-02-17T04:51:34;96948.28;;;8.07;nan
15229;BME280;7717;47.792;12.076;2023-02-17T04:54:00;96929.19;;;7.85;nan
15229;BME280;7717;47.792;12.076;2023-02-17T04:56:25;96941.53;;;8.10;nan
15229;BME280;7717;47.792;12.076;2023-02-17T04:58:51;96943.03;;;7.99;nan
15229;BME280;7717;47.792;12.076;2023-02-17T05:01:16;96920.22;;;8.07;nan
15229;BME280;7717;47.792;12.076;2023-02-17T05:03:41;96924.44;;;8.05;nan
15229;BME280;7717;47.792;12.076;2023-02-17T05:06:06;96928.59;;;8.00;nan
15229;BME280;7717;47.792;12.076;2023-02-17T05:08:32;96943.81;;;7.95;nan
15229;BME280;7717;47.792;12.076;2023-02-17T05:10:57;96920.13;;;8.01;nan
15229;BME280;7717;47.792;12.076;2023-02-17T05:13:23;96929.44;;;7.99;nan
15229;BME280;7717;47.792;12.076;2023-02-17T05:15:48;96927.19;;;8.17;nan
15229;BME280;7717;47.792;12.076;2023-02-17T05:18:13;96934.09;;;7.74;nan
15229;BME280;7717;47.792;12.076;2023-02-17T05:20:39;96959.63;;;7.77;nan
15229;BME280;7717;47.792;12.076;2023-02-17T05:23:05;96921.44;;;7.79;nan
15229;BME280;7717;47.792;12.076;2023-02-17T05:25:30;96933.50;;;7.89;nan
15229;BME280;7717;47.792;12.076;2023-02-17T05:27:56;96927.75;;;7.99;nan
15229;BME280;7717;47.792;12.076;2023-02-17T05:30:24;96937.78;;;7.90;nan
15229;BME280;7717;47.792;12.076;2023-02-17T05:32:49;96944.66;;;7.94;nan
15229;BME280;7717;47.792;12.076;2023-02-17T05:35:14;96926.44;;;7.74;nan
15229;BME280;7717;47.792;12.076;2023-02-17T05:37:40;96929.06;;;7.79;nan
15229;BME280;7717;47.792;12.076;2023-02-17T05:40:06;96934.22;;;7.82;nan
15229;BME280;7717;47.792;12.076;2023-02-17T05:42:31;96939.28;;;7.79;nan
15229;BME280;7717;47.792;12.076;2023-02-17T05:44:57;96902.66;;;7.75;nan
15229;BME280;7717;47.792;12.076;2023-02-17T05:47:22;96909.66;;;7.85;nan
15229;BME280;7717;47.792;12.076;2023-02-17T05:49:48;96896.13;;;7.89;nan
15229;BME280;7717;47.792;12.076;2023-02-17T05:52:13;96900.25;;;7.83;nan
15229;BME280;7717;47.792;12.076;2023-02-17T05:54:38;96887.63;;;7.90;nan
15229;BME280;7717;47.792;12.076;2023-02-17T05:57:04;96905.41;;;7.86;nan
15229;BME280;7717;47.792;12.076;2023-02-17T05:59:29;96916.38;;;7.82;nan
15229;BME280;7717;47.792;12.076;2023-02-17T06:01:54;96938.53;;;7.86;nan
15229;BME280;7717;47.792;12.076;2023-02-17T06:04:20;96930.00;;;7.84;nan
15229;BME280;7717;47.792;12.076;2023-02-17T06:06:45;96923.31;;;7.90;nan
15229;BME280;7717;47.792;12.076;2023-02-17T06:09:14;96909.78;;;7.93;nan
15229;BME280;7717;47.792;12.076;2023-02-17T06:11:39;96908.88;;;7.89;nan
15229;BME280;7717;47.792;12.076;2023-02-17T06:14:04;96918.38;;;8.00;nan
15229;BME280;7717;47.792;12.076;2023-02-17T06:16:30;96933.06;;;8.13;nan
15229;BME280;7717;47.792;12.076;2023-02-17T06:18:55;96935.34;;;7.98;nan
15229;BME280;7717;47.792;12.076;2023-02-17T06:21:21;96908.88;;;7.89;nan
15229;BME280;7717;47.792;12.076;2023-02-17T06:23:46;96923.31;;;7.90;nan
15229;BME280;7717;47.792;12.076;2023-02-17T06:26:14;96926.91;;;8.00;nan
15229;BME280;7717;47.792;12.076;2023-02-17T06:28:40;96909.81;;;7.95;nan
15229;BME280;7717;47.792;12.076;2023-02-17T06:31:05;96926.97;;;8.03;nan
15229;BME280;7717;47.792;12.076;2023-02-17T06:33:30;96940.47;;;7.98;nan
15229;BME280;7717;47.792;12.076;2023-02-17T06:35:56;96925.97;;;7.97;nan
15229;BME280;7717;47.792;12.076;2023-02-17T06:38:21;96939.50;;;7.91;nan
15229;BME280;7717;47.792;12.076;2023-02-17T06:40:46;96932.66;;;7.88;nan
15229;BME280;7717;47.792;12.076;2023-02-17T06:43:12;96946.50;;;8.04;nan
15229;BME280;7717;47.792;12.076;2023-02-17T06:45:38;96949.78;;;7.96;nan
15229;BME280;7717;47.792;12.076;2023-02-17T06:48:03;96965.38;;;8.14;nan
15229;BME280;7717;47.792;12.076;2023-02-17T06:50:29;96953.09;;;7.91;nan
15229;BME280;7717;47.792;12.076;2023-02-17T06:52:54;96953.91;;;7.90;nan
15229;BME280;7717;47.792;12.076;2023-02-17T06:55:20;96962.38;;;7.88;nan
15229;BME280;7717;47.792;12.076;2023-02-17T06:57:45;96945.38;;;7.88;nan
15229;BME280;7717;47.792;12.076;2023-02-17T07:00:11;96943.53;;;7.81;nan
15229;BME280;7717;47.792;12.076;2023-02-17T07:02:37;96953.13;;;7.93;nan
15229;BME280;7717;47.792;12.076;2023-02-17T07:05:03;96957.69;;;8.13;nan
15229;BME280;7717;47.792;12.076;2023-02-17T07:07:28;96958.88;;;8.30;nan
15229;BME280;7717;47.792;12.076;2023-02-17T07:09:54;96951.59;;;8.50;nan
15229;BME280;7717;47.792;12.076;2023-02-17T07:12:19;96930.50;;;8.63;nan
15229;BME280;7717;47.792;12.076;2023-02-17T07:14:45;96949.94;;;8.55;nan
15229;BME280;7717;47.792;12.076;2023-02-17T07:17:10;96958.94;;;8.35;nan
15229;BME280;7717;47.792;12.076;2023-02-17T07:19:35;96930.94;;;8.38;nan
15229;BME280;7717;47.792;12.076;2023-02-17T07:22:01;96961.75;;;8.49;nan
15229;BME280;7717;47.792;12.076;2023-02-17T07:24:26;96952.84;;;8.78;nan
15229;BME280;7717;47.792;12.076;2023-02-17T07:26:52;96928.41;;;8.94;nan
15229;BME280;7717;47.792;12.076;2023-02-17T07:29:20;96913.84;;;8.89;nan
15229;BME280;7717;47.792;12.076;2023-02-17T07:31:46;96905.19;;;8.77;nan
15229;BME280;7717;47.792;12.076;2023-02-17T07:34:11;96921.47;;;8.86;nan
15229;BME280;7717;47.792;12.076;2023-02-17T07:36:36;96915.34;;;8.73;nan
15229;BME280;7717;47.792;12.076;2023-02-17T07:39:02;96929.28;;;8.96;nan
15229;BME280;7717;47.792;12.076;2023-02-17T07:41:28;96909.63;;;8.89;nan
15229;BME280;7717;47.792;12.076;2023-02-17T07:43:55;96938.00;;;9.12;nan
15229;BME280;7717;47.792;12.076;2023-02-17T07:46:22;96918.50;;;9.19;nan
15229;BME280;7717;47.792;12.076;2023-02-17T07:48:47;96925.41;;;9.26;nan
15229;BME280;7717;47.792;12.076;2023-02-17T07:51:16;96889.44;;;9.11;nan
15229;BME280;7717;47.792;12.076;2023-02-17T07:53:41;96905.81;;;9.24;nan
15229;BME280;7717;47.792;12.076;2023-02-17T07:56:09;96910.03;;;9.23;nan
15229;BME280;7717;47.792;12.076;2023-02-17T07:58:37;96900.72;;;9.25;nan
15229;BME280;7717;47.792;12.076;2023-02-17T08:01:19;96893.91;;;9.26;nan
15229;BME280;7717;47.792;12.076;2023-02-17T08:03:46;96895.78;;;9.42;nan
15229;BME280;7717;47.792;12.076;2023-02-17T08:06:14;96869.38;;;9.42;nan
15229;BME280;7717;47.792;12.076;2023-02-17T08:08:40;96896.97;;;9.72;nan
15229;BME280;7717;47.792;12.076;2023-02-17T08:11:24;96909.03;;;9.87;nan
15229;BME280;7717;47.792;12.076;2023-02-17T08:14:09;96859.72;;;10.00;nan
15229;BME280;7717;47.792;12.076;2023-02-17T08:16:34;96913.22;;;9.77;nan
15229;BME280;7717;47.792;12.076;2023-02-17T08:19:00;96917.16;;;9.47;nan
15229;BME280;7717;47.792;12.076;2023-02-17T08:21:26;96931.56;;;9.44;nan
15229;BME280;7717;47.792;12.076;2023-02-17T08:23:52;96928.19;;;9.45;nan
15229;BME280;7717;47.792;12.076;2023-02-17T08:26:18;96911.88;;;9.33;nan
15229;BME280;7717;47.792;12.076;2023-02-17T08:28:44;96921.34;;;9.44;nan
15229;BME280;7717;47.792;12.076;2023-02-17T08:31:18;96909.59;;;9.57;nan
15229;BME280;7717;47.792;12.076;2023-02-17T08:33:44;96936.22;;;9.79;nan
15229;BME280;7717;47.792;12.076;2023-02-17T08:36:10;96907.97;;;9.66;nan
15229;BME280;7717;47.792;12.076;2023-02-17T08:38:36;96891.00;;;9.75;nan
15229;BME280;7717;47.792;12.076;2023-02-17T08:41:11;96905.78;;;10.02;nan
15229;BME280;7717;47.792;12.076;2023-02-17T08:43:36;96920.84;;;9.72;nan
15229;BME280;7717;47.792;12.076;2023-02-17T08:46:06;96901.97;;;9.61;nan
15229;BME280;7717;47.792;12.076;2023-02-17T08:48:32;96938.97;;;9.96;nan
15229;BME280;7717;47.792;12.076;2023-02-17T08:50:57;96913.44;;;10.00;nan
15229;BME280;7717;47.792;12.076;2023-02-17T08:53:23;96909.38;;;10.24;nan
15229;BME280;7717;47.792;12.076;2023-02-17T08:55:48;96906.13;;;10.43;nan
15229;BME280;7717;47.792;12.076;2023-02-17T08:58:13;96897.69;;;10.51;nan
15229;BME280;7717;47.792;12.076;2023-02-17T09:00:39;96935.28;;;10.61;nan
15229;BME280;7717;47.792;12.076;2023-02-17T09:03:04;96879.69;;;10.40;nan
15229;BME280;7717;47.792;12.076;2023-02-17T09:05:32;96896.97;;;10.76;nan
15229;BME280;7717;47.792;12.076;2023-02-17T09:07:59;96880.75;;;10.71;nan
15229;BME280;7717;47.792;12.076;2023-02-17T09:10:25;96885.84;;;10.70;nan
15229;BME280;7717;47.792;12.076;2023-02-17T09:12:51;96892.56;;;10.51;nan
15229;BME280;7717;47.792;12.076;2023-02-17T09:15:16;96937.06;;;10.71;nan
15229;BME280;7717;47.792;12.076;2023-02-17T09:17:41;96900.38;;;10.71;nan
15229;BME280;7717;47.792;12.076;2023-02-17T09:20:08;96938.00;;;10.83;nan
15229;BME280;7717;47.792;12.076;2023-02-17T09:22:34;96916.81;;;11.11;nan
15229;BME280;7717;47.792;12.076;2023-02-17T09:24:59;96917.03;;;11.67;nan
15229;BME280;7717;47.792;12.076;2023-02-17T09:27:25;96887.19;;;11.92;nan
15229;BME280;7717;47.792;12.076;2023-02-17T09:29:50;96898.34;;;12.36;nan
15229;BME280;7717;47.792;12.076;2023-02-17T09:32:15;96889.78;;;12.38;nan
15229;BME280;7717;47.792;12.076;2023-02-17T09:34:41;96892.34;;;12.11;nan
15229;BME280;7717;47.792;12.076;2023-02-17T09:37:13;96898.34;;;11.96;nan
15229;BME280;7717;47.792;12.076;2023-02-17T09:39:39;96928.19;;;11.74;nan
15229;BME280;7717;47.792;12.076;2023-02-17T09:42:05;96929.06;;;11.91;nan
15229;BME280;7717;47.792;12.076;2023-02-17T09:44:40;96935.88;;;11.87;nan
15229;BME280;7717;47.792;12.076;2023-02-17T09:47:21;96899.19;;;12.01;nan
15229;BME280;7717;47.792;12.076;2023-02-17T09:49:57;96871.81;;;12.00;nan
15229;BME280;7717;47.792;12.076;2023-02-17T09:55:18;96906.03;;;12.42;nan
15229;BME280;7717;47.792;12.076;2023-02-17T09:57:54;96935.13;;;12.64;nan
15229;BME280;7717;47.792;12.076;2023-02-17T10:00:36;96905.91;;;13.22;nan
15229;BME280;7717;47.792;12.076;2023-02-17T10:06:34;96887.66;;;13.78;nan
15229;BME280;7717;47.792;12.076;2023-02-17T10:08:56;96886.22;;;13.12;nan
15229;BME280;7717;47.792;12.076;2023-02-17T10:13:54;96898.78;;;13.80;nan
15229;BME280;7717;47.792;12.076;2023-02-17T10:16:35;96861.00;;;13.93;nan
15229;BME280;7717;47.792;12.076;2023-02-17T10:19:25;96864.41;;;13.93;nan
15229;BME280;7717;47.792;12.076;2023-02-17T10:22:19;96827.47;;;14.00;nan
15229;BME280;7717;47.792;12.076;2023-02-17T10:24:44;96874.66;;;13.98;nan
15229;BME280;7717;47.792;12.076;2023-02-17T10:32:47;96863.84;;;14.63;nan
15229;BME280;7717;47.792;12.076;2023-02-17T10:35:17;96844.97;;;14.57;nan
15229;BME280;7717;47.792;12.076;2023-02-17T10:37:57;96867.63;;;14.23;nan
15229;BME280;7717;47.792;12.076;2023-02-17T10:40:27;96854.97;;;13.89;nan
15229;BME280;7717;47.792;12.076;2023-02-17T10:43:01;96863.63;;;13.85;nan
15229;BME280;7717;47.792;12.076;2023-02-17T10:45:32;96906.84;;;14.54;nan
15229;BME280;7717;47.792;12.076;2023-02-17T10:48:08;96818.38;;;14.57;nan
15229;BME280;7717;47.792;12.076;2023-02-17T10:50:37;96895.47;;;14.83;nan
15229;BME280;7717;47.792;12.076;2023-02-17T10:53:20;96775.94;;;15.56;nan
15229;BME280;7717;47.792;12.076;2023-02-17T10:56:40;96816.56;;;14.68;nan
15229;BME280;7717;47.792;12.076;2023-02-17T10:58:58;96854.22;;;14.82;nan
15229;BME280;7717;47.792;12.076;2023-02-17T11:01:26;96854.31;;;14.75;nan
15229;BME280;7717;47.792;12.076;2023-02-17T11:04:04;96859.97;;;15.07;nan
15229;BME280;7717;47.792;12.076;2023-02-17T11:06:31;96851.75;;;14.72;nan
15229;BME280;7717;47.792;12.076;2023-02-17T11:09:05;96840.34;;;14.93;nan
15229;BME280;7717;47.792;12.076;2023-02-17T11:11:35;96858.25;;;15.06;nan
15229;BME280;7717;47.792;12.076;2023-02-17T11:14:13;96863.88;;;15.37;nan
15229;BME280;7717;47.792;12.076;2023-02-17T11:16:53;96810.16;;;15.67;nan
15229;BME280;7717;47.792;12.076;2023-02-17T11:19:29;96804.09;;;15.70;nan
15229;BME280;7717;47.792;12.076;2023-02-17T11:21:57;96818.00;;;16.18;nan
15229;BME280;7717;47.792;12.076;2023-02-17T11:24:23;96765.09;;;16.41;nan
15229;BME280;7717;47.792;12.076;2023-02-17T11:29:26;96806.84;;;16.66;nan
15229;BME280;7717;47.792;12.076;2023-02-17T11:32:03;96801.44;;;16.30;nan
15229;BME280;7717;47.792;12.076;2023-02-17T11:34:32;96823.25;;;16.64;nan
15229;BME280;7717;47.792;12.076;2023-02-17T11:39:53;96762.91;;;16.65;nan
15229;BME280;7717;47.792;12.076;2023-02-17T11:42:24;96742.16;;;17.13;nan
15229;BME280;7717;47.792;12.076;2023-02-17T11:44:52;96729.63;;;17.34;nan
15229;BME280;7717;47.792;12.076;2023-02-17T11:47:47;96762.59;;;17.24;nan
15229;BME280;7717;47.792;12.076;2023-02-17T11:55:32;96751.16;;;18.08;nan
15229;BME280;7717;47.792;12.076;2023-02-17T11:58:15;96697.69;;;19.56;nan
15229;BME280;7717;47.792;12.076;2023-02-17T12:09:18;96823.28;;;17.50;nan
15229;BME280;7717;47.792;12.076;2023-02-17T12:12:21;96795.34;;;17.25;nan
15229;BME280;7717;47.792;12.076;2023-02-17T12:25:44;96702.25;;;19.21;nan
15229;BME280;7717;47.792;12.076;2023-02-17T12:31:09;96709.13;;;19.22;nan
15229;BME280;7717;47.792;12.076;2023-02-17T12:36:14;96751.47;;;17.95;nan
15229;BME280;7717;47.792;12.076;2023-02-17T12:38:46;96724.66;;;17.98;nan
15229;BME280;7717;47.792;12.076;2023-02-17T12:41:39;96733.25;;;17.62;nan
15229;BME280;7717;47.792;12.076;2023-02-17T12:44:14;96741.34;;;17.09;nan
15229;BME280;7717;47.792;12.076;2023-02-17T12:46:43;96777.34;;;17.19;nan
15229;BME280;7717;47.792;12.076;2023-02-17T12:49:18;96757.91;;;17.01;nan
15229;BME280;7717;47.792;12.076;2023-02-17T12:54:35;96772.28;;;17.14;nan
15229;BME280;7717;47.792;12.076;2023-02-17T12:59:38;96745.84;;;17.40;nan
15229;BME280;7717;47.792;12.076;2023-02-17T13:02:10;96736.09;;;17.13;nan
15229;BME280;7717;47.792;12.076;2023-02-17T13:04:36;96741.81;;;17.29;nan
15229;BME280;7717;47.792;12.076;2023-02-17T13:07:15;96705.00;;;18.55;nan
15229;BME280;7717;47.792;12.076;2023-02-17T13:09:44;96680.63;;;18.92;nan
15229;BME280;7717;47.792;12.076;2023-02-17T13:12:31;96661.88;;;18.82;nan
15229;BME280;7717;47.792;12.076;2023-02-17T13:15:03;96710.06;;;18.60;nan
15229;BME280;7717;47.792;12.076;2023-02-17T13:17:38;96739.13;;;17.71;nan
15229;BME280;7717;47.792;12.076;2023-02-17T13:22:39;96756.66;;;17.19;nan
15229;BME280;7717;47.792;12.076;2023-02-17T13:25:06;96765.47;;;17.12;nan
15229;BME280;7717;47.792;12.076;2023-02-17T13:27:36;96761.38;;;17.00;nan
15229;BME280;7717;47.792;12.076;2023-02-17T13:32:47;96799.56;;;16.38;nan
15229;BME280;7717;47.792;12.076;2023-02-17T13:37:50;96811.81;;;16.29;nan
15229;BME280;7717;47.792;12.076;2023-02-17T13:42:48;96818.66;;;16.30;nan
15229;BME280;7717;47.792;12.076;2023-02-17T13:45:22;96823.00;;;16.28;nan
15229;BME280;7717;47.792;12.076;2023-02-17T13:47:51;96821.53;;;16.14;nan
15229;BME280;7717;47.792;12.076;2023-02-17T13:50:35;96824.81;;;16.24;nan
15229;BME280;7717;47.792;12.076;2023-02-17T13:53:28;96824.94;;;16.16;nan
15229;BME280;7717;47.792;12.076;2023-02-17T13:56:00;96819.00;;;16.11;nan
15229;BME280;7717;47.792;12.076;2023-02-17T13:58:40;96834.63;;;16.02;nan
15229;BME280;7717;47.792;12.076;2023-02-17T14:01:15;96844.91;;;16.05;nan
15229;BME280;7717;47.792;12.076;2023-02-17T14:03:49;96853.56;;;16.01;nan
15229;BME280;7717;47.792;12.076;2023-02-17T14:06:37;96830.63;;;15.82;nan
15229;BME280;7717;47.792;12.076;2023-02-17T14:11:55;96862.41;;;15.84;nan
15229;BME280;7717;47.792;12.076;2023-02-17T14:14:32;96869.41;;;15.78;nan
15229;BME280;7717;47.792;12.076;2023-02-17T14:16:59;96891.97;;;15.60;nan
15229;BME280;7717;47.792;12.076;2023-02-17T14:19:25;96860.00;;;15.72;nan
15229;BME280;7717;47.792;12.076;2023-02-17T14:22:02;96865.13;;;15.75;nan
15229;BME280;7717;47.792;12.076;2023-02-17T14:27:08;96878.88;;;15.77;nan
15229;BME280;7717;47.792;12.076;2023-02-17T14:29:43;96876.13;;;15.90;nan
15229;BME280;7717;47.792;12.076;2023-02-17T14:34:53;96875.13;;;15.98;nan
15229;BME280;7717;47.792;12.076;2023-02-17T14:37:23;96868.28;;;15.97;nan
15229;BME280;7717;47.792;12.076;2023-02-17T14:39:49;96860.38;;;16.07;nan
15229;BME280;7717;47.792;12.076;2023-02-17T14:42:14;96842.16;;;16.16;nan
15229;BME280;7717;47.792;12.076;2023-02-17T14:44:39;96871.00;;;15.87;nan
15229;BME280;7717;47.792;12.076;2023-02-17T14:47:05;96877.19;;;15.72;nan
15229;BME280;7717;47.792;12.076;2023-02-17T14:49:31;96876.50;;;15.59;nan
15229;BME280;7717;47.792;12.076;2023-02-17T14:51:56;96861.69;;;15.73;nan
15229;BME280;7717;47.792;12.076;2023-02-17T14:54:22;96870.28;;;15.78;nan
15229;BME280;7717;47.792;12.076;2023-02-17T14:57:11;96846.25;;;15.70;nan
15229;BME280;7717;47.792;12.076;2023-02-17T14:59:38;96865.22;;;15.69;nan
15229;BME280;7717;47.792;12.076;2023-02-17T15:02:18;96882.53;;;15.58;nan
15229;BME280;7717;47.792;12.076;2023-02-17T15:04:44;96873.06;;;15.60;nan
15229;BME280;7717;47.792;12.076;2023-02-17T15:07:14;96871.22;;;15.68;nan
15229;BME280;7717;47.792;12.076;2023-02-17T15:09:45;96867.13;;;15.52;nan
15229;BME280;7717;47.792;12.076;2023-02-17T15:12:17;96880.00;;;15.55;nan
15229;BME280;7717;47.792;12.076;2023-02-17T15:14:43;96913.81;;;15.33;nan
15229;BME280;7717;47.792;12.076;2023-02-17T15:17:14;96931.47;;;14.91;nan
15229;BME280;7717;47.792;12.076;2023-02-17T15:19:40;96921.50;;;14.48;nan
15229;BME280;7717;47.792;12.076;2023-02-17T15:22:10;96887.97;;;14.54;nan